sensor_id;sensor_type;location;lat;lon;timestamp;P1;durP1;ratioP1;P2;durP2;ratioP2
67185;SDS011;54116;53.518;49.398;2024-03-17T00:00:37;4.20;;;1.77;;
67185;SDS011;54116;53.518;49.398;2024-03-17T00:03:06;4.75;;;1.40;;
67185;SDS011;54116;53.518;49.398;2024-03-17T00:05:35;5.60;;;1.95;;
67185;SDS011;54116;53.518;49.398;2024-03-17T00:08:02;4.50;;;1.80;;
67185;SDS011;54116;53.518;49.398;2024-03-17T00:10:30;4.78;;;1.73;;
67185;SDS011;54116;53.518;49.398;2024-03-17T00:12:57;6.05;;;1.90;;
67185;SDS011;54116;53.518;49.398;2024-03-17T00:15:24;4.25;;;1.52;;
67185;SDS011;54116;53.518;49.398;2024-03-17T00:17:50;7.43;;;1.83;;
67185;SDS011;54116;53.518;49.398;2024-03-17T00:20:16;3.80;;;1.58;;
67185;SDS011;54116;53.518;49.398;2024-03-17T00:22:49;4.18;;;1.80;;
67185;SDS011;54116;53.518;49.398;2024-03-17T00:25:19;3.90;;;1.48;;
67185;SDS011;54116;53.518;49.398;2024-03-17T00:27:45;4.60;;;1.65;;
67185;SDS011;54116;53.518;49.398;2024-03-17T00:30:13;3.60;;;1.52;;
67185;SDS011;54116;53.518;49.398;2024-03-17T00:32:42;5.38;;;1.60;;
67185;SDS011;54116;53.518;49.398;2024-03-17T00:35:09;3.95;;;1.75;;
67185;SDS011;54116;53.518;49.398;2024-03-17T00:37:37;6.32;;;2.03;;
67185;SDS011;54116;53.518;49.398;2024-03-17T00:40:04;3.70;;;1.50;;
67185;SDS011;54116;53.518;49.398;2024-03-17T00:42:31;4.05;;;1.23;;
67185;SDS011;54116;53.518;49.398;2024-03-17T00:44:58;4.60;;;1.63;;
67185;SDS011;54116;53.518;49.398;2024-03-17T00:47:25;2.92;;;1.17;;
67185;SDS011;54116;53.518;49.398;2024-03-17T00:49:51;2.95;;;1.33;;
67185;SDS011;54116;53.518;49.398;2024-03-17T00:52:18;4.45;;;1.58;;
67185;SDS011;54116;53.518;49.398;2024-03-17T00:54:46;5.00;;;1.88;;
67185;SDS011;54116;53.518;49.398;2024-03-17T00:57:13;4.05;;;1.45;;
67185;SDS011;54116;53.518;49.398;2024-03-17T00:59:41;5.45;;;1.70;;
67185;SDS011;54116;53.518;49.398;2024-03-17T01:02:12;6.25;;;1.63;;
67185;SDS011;54116;53.518;49.398;2024-03-17T01:04:41;4.55;;;1.52;;
67185;SDS011;54116;53.518;49.398;2024-03-17T01:07:09;4.18;;;1.40;;
67185;SDS011;54116;53.518;49.398;2024-03-17T01:09:35;3.75;;;1.38;;
67185;SDS011;54116;53.518;49.398;2024-03-17T01:12:02;4.25;;;1.30;;
67185;SDS011;54116;53.518;49.398;2024-03-17T01:14:29;3.67;;;1.30;;
67185;SDS011;54116;53.518;49.398;2024-03-17T01:16:56;4.35;;;1.52;;
67185;SDS011;54116;53.518;49.398;2024-03-17T01:19:23;4.05;;;1.33;;
67185;SDS011;54116;53.518;49.398;2024-03-17T01:21:50;3.47;;;1.23;;
67185;SDS011;54116;53.518;49.398;2024-03-17T01:24:16;5.00;;;1.80;;
67185;SDS011;54116;53.518;49.398;2024-03-17T01:26:43;3.58;;;1.65;;
67185;SDS011;54116;53.518;49.398;2024-03-17T01:29:10;4.97;;;1.27;;
67185;SDS011;54116;53.518;49.398;2024-03-17T01:31:36;5.47;;;1.95;;
67185;SDS011;54116;53.518;49.398;2024-03-17T01:34:02;3.75;;;1.42;;
67185;SDS011;54116;53.518;49.398;2024-03-17T01:36:28;3.78;;;1.33;;
67185;SDS011;54116;53.518;49.398;2024-03-17T01:38:55;4.68;;;1.50;;
67185;SDS011;54116;53.518;49.398;2024-03-17T01:41:21;4.32;;;1.33;;
67185;SDS011;54116;53.518;49.398;2024-03-17T01:43:47;4.60;;;1.42;;
67185;SDS011;54116;53.518;49.398;2024-03-17T01:46:14;4.22;;;1.63;;
67185;SDS011;54116;53.518;49.398;2024-03-17T01:48:42;5.50;;;1.20;;
67185;SDS011;54116;53.518;49.398;2024-03-17T01:53:37;2.78;;;1.25;;
67185;SDS011;54116;53.518;49.398;2024-03-17T01:56:04;4.10;;;1.42;;
67185;SDS011;54116;53.518;49.398;2024-03-17T01:58:33;5.07;;;1.52;;
67185;SDS011;54116;53.518;49.398;2024-03-17T02:01:00;3.30;;;1.23;;
67185;SDS011;54116;53.518;49.398;2024-03-17T02:03:27;4.53;;;1.60;;
67185;SDS011;54116;53.518;49.398;2024-03-17T02:05:53;4.25;;;2.03;;
67185;SDS011;54116;53.518;49.398;2024-03-17T02:08:19;6.70;;;2.15;;
67185;SDS011;54116;53.518;49.398;2024-03-17T02:10:53;4.10;;;1.38;;
67185;SDS011;54116;53.518;49.398;2024-03-17T02:13:20;4.55;;;1.30;;
67185;SDS011;54116;53.518;49.398;2024-03-17T02:15:47;4.50;;;1.30;;
67185;SDS011;54116;53.518;49.398;2024-03-17T02:20:39;4.43;;;1.38;;
67185;SDS011;54116;53.518;49.398;2024-03-17T02:23:21;4.25;;;1.33;;
67185;SDS011;54116;53.518;49.398;2024-03-17T02:25:47;5.10;;;1.90;;
67185;SDS011;54116;53.518;49.398;2024-03-17T02:28:14;6.35;;;1.70;;
67185;SDS011;54116;53.518;49.398;2024-03-17T02:30:40;6.18;;;1.67;;
67185;SDS011;54116;53.518;49.398;2024-03-17T02:33:06;3.65;;;1.45;;
67185;SDS011;54116;53.518;49.398;2024-03-17T02:35:32;5.28;;;1.60;;
67185;SDS011;54116;53.518;49.398;2024-03-17T02:37:58;4.25;;;1.55;;
67185;SDS011;54116;53.518;49.398;2024-03-17T02:40:24;5.38;;;1.65;;
67185;SDS011;54116;53.518;49.398;2024-03-17T02:42:50;4.10;;;1.50;;
67185;SDS011;54116;53.518;49.398;2024-03-17T02:45:16;5.13;;;1.77;;
67185;SDS011;54116;53.518;49.398;2024-03-17T02:47:42;4.47;;;1.55;;
67185;SDS011;54116;53.518;49.398;2024-03-17T02:50:08;5.90;;;1.90;;
67185;SDS011;54116;53.518;49.398;2024-03-17T02:52:35;4.93;;;1.50;;
67185;SDS011;54116;53.518;49.398;2024-03-17T02:55:01;5.97;;;1.70;;
67185;SDS011;54116;53.518;49.398;2024-03-17T02:57:27;6.90;;;1.65;;
67185;SDS011;54116;53.518;49.398;2024-03-17T03:00:00;4.85;;;1.73;;
67185;SDS011;54116;53.518;49.398;2024-03-17T03:02:30;5.53;;;1.50;;
67185;SDS011;54116;53.518;49.398;2024-03-17T03:04:56;5.93;;;1.70;;
67185;SDS011;54116;53.518;49.398;2024-03-17T03:07:22;5.95;;;1.60;;
67185;SDS011;54116;53.518;49.398;2024-03-17T03:09:48;6.53;;;1.63;;
67185;SDS011;54116;53.518;49.398;2024-03-17T03:12:16;3.55;;;1.38;;
67185;SDS011;54116;53.518;49.398;2024-03-17T03:14:42;4.40;;;1.48;;
67185;SDS011;54116;53.518;49.398;2024-03-17T03:17:08;3.92;;;1.50;;
67185;SDS011;54116;53.518;49.398;2024-03-17T03:19:35;4.97;;;1.48;;
67185;SDS011;54116;53.518;49.398;2024-03-17T03:22:01;5.68;;;1.77;;
67185;SDS011;54116;53.518;49.398;2024-03-17T03:24:27;5.38;;;1.55;;
67185;SDS011;54116;53.518;49.398;2024-03-17T03:26:53;4.75;;;1.38;;
67185;SDS011;54116;53.518;49.398;2024-03-17T03:29:19;4.25;;;1.70;;
67185;SDS011;54116;53.518;49.398;2024-03-17T03:31:45;5.05;;;1.67;;
67185;SDS011;54116;53.518;49.398;2024-03-17T03:34:13;7.28;;;1.88;;
67185;SDS011;54116;53.518;49.398;2024-03-17T03:36:39;4.90;;;1.90;;
67185;SDS011;54116;53.518;49.398;2024-03-17T03:39:07;5.97;;;1.92;;
67185;SDS011;54116;53.518;49.398;2024-03-17T03:41:38;5.38;;;2.20;;
67185;SDS011;54116;53.518;49.398;2024-03-17T03:44:04;5.43;;;2.28;;
67185;SDS011;54116;53.518;49.398;2024-03-17T03:46:30;8.32;;;2.60;;
67185;SDS011;54116;53.518;49.398;2024-03-17T03:48:56;6.22;;;2.65;;
67185;SDS011;54116;53.518;49.398;2024-03-17T03:51:23;9.35;;;2.63;;
67185;SDS011;54116;53.518;49.398;2024-03-17T03:53:50;5.07;;;2.25;;
67185;SDS011;54116;53.518;49.398;2024-03-17T03:56:16;7.07;;;2.45;;
67185;SDS011;54116;53.518;49.398;2024-03-17T03:58:42;5.53;;;2.08;;
67185;SDS011;54116;53.518;49.398;2024-03-17T04:01:11;4.75;;;2.15;;
67185;SDS011;54116;53.518;49.398;2024-03-17T04:03:38;5.32;;;1.88;;
67185;SDS011;54116;53.518;49.398;2024-03-17T04:06:08;6.32;;;2.17;;
67185;SDS011;54116;53.518;49.398;2024-03-17T04:08:37;6.80;;;2.28;;
67185;SDS011;54116;53.518;49.398;2024-03-17T04:11:07;5.72;;;2.10;;
67185;SDS011;54116;53.518;49.398;2024-03-17T04:13:34;5.85;;;2.55;;
67185;SDS011;54116;53.518;49.398;2024-03-17T04:16:06;5.72;;;2.03;;
67185;SDS011;54116;53.518;49.398;2024-03-17T04:18:33;5.35;;;2.20;;
67185;SDS011;54116;53.518;49.398;2024-03-17T04:21:04;8.02;;;2.20;;
67185;SDS011;54116;53.518;49.398;2024-03-17T04:23:32;7.03;;;2.40;;
67185;SDS011;54116;53.518;49.398;2024-03-17T04:25:59;6.55;;;2.05;;
67185;SDS011;54116;53.518;49.398;2024-03-17T04:28:27;6.45;;;2.22;;
67185;SDS011;54116;53.518;49.398;2024-03-17T04:31:01;6.53;;;2.17;;
67185;SDS011;54116;53.518;49.398;2024-03-17T04:33:34;6.18;;;1.92;;
67185;SDS011;54116;53.518;49.398;2024-03-17T04:36:01;6.15;;;2.08;;
67185;SDS011;54116;53.518;49.398;2024-03-17T04:38:28;4.78;;;2.20;;
67185;SDS011;54116;53.518;49.398;2024-03-17T04:40:54;6.85;;;2.25;;
67185;SDS011;54116;53.518;49.398;2024-03-17T04:43:30;7.88;;;2.35;;
67185;SDS011;54116;53.518;49.398;2024-03-17T04:46:00;5.55;;;2.10;;
67185;SDS011;54116;53.518;49.398;2024-03-17T04:48:29;5.93;;;2.25;;
67185;SDS011;54116;53.518;49.398;2024-03-17T04:50:56;6.03;;;2.50;;
67185;SDS011;54116;53.518;49.398;2024-03-17T04:53:24;6.22;;;2.78;;
67185;SDS011;54116;53.518;49.398;2024-03-17T04:56:00;7.53;;;2.25;;
67185;SDS011;54116;53.518;49.398;2024-03-17T04:58:31;7.82;;;2.65;;
67185;SDS011;54116;53.518;49.398;2024-03-17T05:01:07;12.27;;;2.83;;
67185;SDS011;54116;53.518;49.398;2024-03-17T05:03:34;8.35;;;2.38;;
67185;SDS011;54116;53.518;49.398;2024-03-17T05:06:01;7.30;;;2.53;;
67185;SDS011;54116;53.518;49.398;2024-03-17T05:08:29;6.65;;;2.60;;
67185;SDS011;54116;53.518;49.398;2024-03-17T05:10:59;8.93;;;2.65;;
67185;SDS011;54116;53.518;49.398;2024-03-17T05:13:29;6.13;;;2.67;;
67185;SDS011;54116;53.518;49.398;2024-03-17T05:15:55;6.85;;;2.47;;
67185;SDS011;54116;53.518;49.398;2024-03-17T05:18:22;6.82;;;2.22;;
67185;SDS011;54116;53.518;49.398;2024-03-17T05:21:01;6.03;;;2.33;;
67185;SDS011;54116;53.518;49.398;2024-03-17T05:23:35;6.05;;;2.15;;
67185;SDS011;54116;53.518;49.398;2024-03-17T05:26:03;7.70;;;1.95;;
67185;SDS011;54116;53.518;49.398;2024-03-17T05:28:32;7.68;;;2.60;;
67185;SDS011;54116;53.518;49.398;2024-03-17T05:30:59;6.32;;;2.72;;
67185;SDS011;54116;53.518;49.398;2024-03-17T05:33:25;4.88;;;2.25;;
67185;SDS011;54116;53.518;49.398;2024-03-17T05:35:53;5.18;;;2.40;;
67185;SDS011;54116;53.518;49.398;2024-03-17T05:38:20;5.72;;;2.85;;
67185;SDS011;54116;53.518;49.398;2024-03-17T05:40:58;5.97;;;2.72;;
67185;SDS011;54116;53.518;49.398;2024-03-17T05:43:29;5.85;;;1.60;;
67185;SDS011;54116;53.518;49.398;2024-03-17T05:45:57;7.03;;;2.22;;
67185;SDS011;54116;53.518;49.398;2024-03-17T05:48:24;4.43;;;2.10;;
67185;SDS011;54116;53.518;49.398;2024-03-17T05:50:50;5.47;;;2.15;;
67185;SDS011;54116;53.518;49.398;2024-03-17T05:53:17;5.45;;;1.98;;
67185;SDS011;54116;53.518;49.398;2024-03-17T05:55:44;4.63;;;1.90;;
67185;SDS011;54116;53.518;49.398;2024-03-17T05:58:10;4.78;;;2.03;;
67185;SDS011;54116;53.518;49.398;2024-03-17T06:00:37;5.28;;;2.00;;
67185;SDS011;54116;53.518;49.398;2024-03-17T06:03:05;4.88;;;1.88;;
67185;SDS011;54116;53.518;49.398;2024-03-17T06:05:32;4.30;;;1.92;;
67185;SDS011;54116;53.518;49.398;2024-03-17T06:08:00;5.22;;;1.90;;
67185;SDS011;54116;53.518;49.398;2024-03-17T06:10:32;5.00;;;2.15;;
67185;SDS011;54116;53.518;49.398;2024-03-17T06:12:58;4.18;;;1.85;;
67185;SDS011;54116;53.518;49.398;2024-03-17T06:15:25;4.30;;;1.92;;
67185;SDS011;54116;53.518;49.398;2024-03-17T06:17:54;5.10;;;1.80;;
67185;SDS011;54116;53.518;49.398;2024-03-17T06:20:22;3.90;;;1.60;;
67185;SDS011;54116;53.518;49.398;2024-03-17T06:22:54;4.97;;;1.85;;
67185;SDS011;54116;53.518;49.398;2024-03-17T06:25:27;5.43;;;1.90;;
67185;SDS011;54116;53.518;49.398;2024-03-17T06:27:53;5.25;;;1.60;;
67185;SDS011;54116;53.518;49.398;2024-03-17T06:30:23;3.47;;;1.70;;
67185;SDS011;54116;53.518;49.398;2024-03-17T06:32:49;4.10;;;1.25;;
67185;SDS011;54116;53.518;49.398;2024-03-17T06:35:16;5.40;;;1.80;;
67185;SDS011;54116;53.518;49.398;2024-03-17T06:37:46;4.47;;;1.80;;
67185;SDS011;54116;53.518;49.398;2024-03-17T06:40:14;3.95;;;1.30;;
67185;SDS011;54116;53.518;49.398;2024-03-17T06:42:40;3.22;;;1.00;;
67185;SDS011;54116;53.518;49.398;2024-03-17T06:45:07;4.55;;;1.55;;
67185;SDS011;54116;53.518;49.398;2024-03-17T06:47:34;4.78;;;1.35;;
67185;SDS011;54116;53.518;49.398;2024-03-17T06:50:04;3.20;;;1.00;;
67185;SDS011;54116;53.518;49.398;2024-03-17T06:52:30;3.53;;;1.10;;
67185;SDS011;54116;53.518;49.398;2024-03-17T06:54:57;3.00;;;1.08;;
67185;SDS011;54116;53.518;49.398;2024-03-17T06:57:24;3.88;;;1.10;;
67185;SDS011;54116;53.518;49.398;2024-03-17T06:59:51;3.60;;;1.42;;
67185;SDS011;54116;53.518;49.398;2024-03-17T07:02:18;3.28;;;1.02;;
67185;SDS011;54116;53.518;49.398;2024-03-17T07:04:46;3.88;;;1.25;;
67185;SDS011;54116;53.518;49.398;2024-03-17T07:07:13;3.33;;;1.10;;
67185;SDS011;54116;53.518;49.398;2024-03-17T07:09:40;3.40;;;1.30;;
67185;SDS011;54116;53.518;49.398;2024-03-17T07:12:07;4.72;;;1.40;;
67185;SDS011;54116;53.518;49.398;2024-03-17T07:14:35;4.57;;;1.55;;
67185;SDS011;54116;53.518;49.398;2024-03-17T07:17:02;4.32;;;1.30;;
67185;SDS011;54116;53.518;49.398;2024-03-17T07:19:29;3.90;;;1.38;;
67185;SDS011;54116;53.518;49.398;2024-03-17T07:21:57;5.65;;;1.25;;
67185;SDS011;54116;53.518;49.398;2024-03-17T07:24:23;4.88;;;1.42;;
67185;SDS011;54116;53.518;49.398;2024-03-17T07:26:50;6.07;;;2.10;;
67185;SDS011;54116;53.518;49.398;2024-03-17T07:29:16;6.80;;;2.03;;
67185;SDS011;54116;53.518;49.398;2024-03-17T07:31:45;4.40;;;1.15;;
67185;SDS011;54116;53.518;49.398;2024-03-17T07:34:11;4.18;;;1.40;;
67185;SDS011;54116;53.518;49.398;2024-03-17T07:36:37;5.68;;;1.83;;
67185;SDS011;54116;53.518;49.398;2024-03-17T07:39:05;3.15;;;1.25;;
67185;SDS011;54116;53.518;49.398;2024-03-17T07:41:33;4.40;;;1.80;;
67185;SDS011;54116;53.518;49.398;2024-03-17T07:43:59;3.97;;;1.40;;
67185;SDS011;54116;53.518;49.398;2024-03-17T07:46:25;4.75;;;1.52;;
67185;SDS011;54116;53.518;49.398;2024-03-17T07:48:51;3.95;;;1.20;;
67185;SDS011;54116;53.518;49.398;2024-03-17T07:51:18;5.13;;;1.95;;
67185;SDS011;54116;53.518;49.398;2024-03-17T07:53:46;5.97;;;2.05;;
67185;SDS011;54116;53.518;49.398;2024-03-17T07:56:15;3.83;;;1.35;;
67185;SDS011;54116;53.518;49.398;2024-03-17T07:58:42;4.20;;;1.38;;
67185;SDS011;54116;53.518;49.398;2024-03-17T08:01:13;5.20;;;1.60;;
67185;SDS011;54116;53.518;49.398;2024-03-17T08:03:41;3.38;;;1.55;;
67185;SDS011;54116;53.518;49.398;2024-03-17T08:06:10;5.05;;;2.05;;
67185;SDS011;54116;53.518;49.398;2024-03-17T08:08:37;4.50;;;1.42;;
67185;SDS011;54116;53.518;49.398;2024-03-17T08:11:03;3.65;;;1.25;;
67185;SDS011;54116;53.518;49.398;2024-03-17T08:13:30;3.35;;;1.13;;
67185;SDS011;54116;53.518;49.398;2024-03-17T08:16:01;4.10;;;1.75;;
67185;SDS011;54116;53.518;49.398;2024-03-17T08:18:31;4.07;;;2.08;;
67185;SDS011;54116;53.518;49.398;2024-03-17T08:20:59;4.20;;;1.40;;
67185;SDS011;54116;53.518;49.398;2024-03-17T08:23:27;16.67;;;6.03;;
67185;SDS011;54116;53.518;49.398;2024-03-17T08:25:53;20.17;;;6.82;;
67185;SDS011;54116;53.518;49.398;2024-03-17T08:31:08;26.88;;;8.48;;
67185;SDS011;54116;53.518;49.398;2024-03-17T08:33:35;21.90;;;7.78;;
67185;SDS011;54116;53.518;49.398;2024-03-17T08:36:02;18.88;;;7.30;;
67185;SDS011;54116;53.518;49.398;2024-03-17T08:38:30;21.90;;;8.18;;
67185;SDS011;54116;53.518;49.398;2024-03-17T08:40:58;24.17;;;6.88;;
67185;SDS011;54116;53.518;49.398;2024-03-17T08:43:29;26.05;;;7.72;;
67185;SDS011;54116;53.518;49.398;2024-03-17T08:46:00;28.38;;;9.50;;
67185;SDS011;54116;53.518;49.398;2024-03-17T08:48:31;23.02;;;7.53;;
67185;SDS011;54116;53.518;49.398;2024-03-17T08:51:02;24.10;;;8.25;;
67185;SDS011;54116;53.518;49.398;2024-03-17T08:53:29;19.10;;;7.20;;
67185;SDS011;54116;53.518;49.398;2024-03-17T08:55:56;24.95;;;9.00;;
67185;SDS011;54116;53.518;49.398;2024-03-17T08:58:24;32.53;;;10.50;;
67185;SDS011;54116;53.518;49.398;2024-03-17T09:00:51;22.73;;;9.30;;
67185;SDS011;54116;53.518;49.398;2024-03-17T09:03:17;24.75;;;8.00;;
67185;SDS011;54116;53.518;49.398;2024-03-17T09:05:45;33.88;;;14.77;;
67185;SDS011;54116;53.518;49.398;2024-03-17T09:08:16;32.38;;;12.05;;
67185;SDS011;54116;53.518;49.398;2024-03-17T09:10:46;21.98;;;8.25;;
67185;SDS011;54116;53.518;49.398;2024-03-17T09:13:15;25.52;;;8.45;;
67185;SDS011;54116;53.518;49.398;2024-03-17T09:18:27;21.83;;;7.38;;
67185;SDS011;54116;53.518;49.398;2024-03-17T09:21:02;29.15;;;10.30;;
67185;SDS011;54116;53.518;49.398;2024-03-17T09:23:36;32.05;;;10.25;;
67185;SDS011;54116;53.518;49.398;2024-03-17T09:26:04;27.10;;;8.77;;
67185;SDS011;54116;53.518;49.398;2024-03-17T09:28:35;26.77;;;11.10;;
67185;SDS011;54116;53.518;49.398;2024-03-17T09:31:02;37.40;;;14.55;;
67185;SDS011;54116;53.518;49.398;2024-03-17T09:33:33;22.33;;;8.52;;
67185;SDS011;54116;53.518;49.398;2024-03-17T09:36:01;26.45;;;8.10;;
67185;SDS011;54116;53.518;49.398;2024-03-17T09:38:36;32.70;;;10.93;;
67185;SDS011;54116;53.518;49.398;2024-03-17T09:41:03;20.83;;;7.15;;
67185;SDS011;54116;53.518;49.398;2024-03-17T09:43:33;22.08;;;7.85;;
67185;SDS011;54116;53.518;49.398;2024-03-17T09:46:04;16.35;;;6.28;;
67185;SDS011;54116;53.518;49.398;2024-03-17T09:48:31;17.77;;;5.70;;
67185;SDS011;54116;53.518;49.398;2024-03-17T09:50:58;16.95;;;7.80;;
67185;SDS011;54116;53.518;49.398;2024-03-17T09:53:31;23.00;;;7.43;;
67185;SDS011;54116;53.518;49.398;2024-03-17T10:00:51;14.35;;;5.50;;
67185;SDS011;54116;53.518;49.398;2024-03-17T10:06:29;22.58;;;7.70;;
67185;SDS011;54116;53.518;49.398;2024-03-17T10:08:58;16.55;;;5.55;;
67185;SDS011;54116;53.518;49.398;2024-03-17T10:11:33;24.08;;;7.20;;
67185;SDS011;54116;53.518;49.398;2024-03-17T10:14:07;19.40;;;5.97;;
67185;SDS011;54116;53.518;49.398;2024-03-17T10:16:35;17.35;;;7.13;;
67185;SDS011;54116;53.518;49.398;2024-03-17T10:19:07;14.57;;;5.80;;
67185;SDS011;54116;53.518;49.398;2024-03-17T10:21:36;21.17;;;7.00;;
67185;SDS011;54116;53.518;49.398;2024-03-17T10:27:01;16.08;;;6.22;;
67185;SDS011;54116;53.518;49.398;2024-03-17T10:29:34;22.98;;;8.20;;
67185;SDS011;54116;53.518;49.398;2024-03-17T10:34:44;19.42;;;6.53;;
67185;SDS011;54116;53.518;49.398;2024-03-17T10:37:13;12.73;;;5.90;;
67185;SDS011;54116;53.518;49.398;2024-03-17T10:39:41;14.50;;;5.38;;
67185;SDS011;54116;53.518;49.398;2024-03-17T10:42:11;14.93;;;6.00;;
67185;SDS011;54116;53.518;49.398;2024-03-17T10:44:42;13.02;;;5.53;;
67185;SDS011;54116;53.518;49.398;2024-03-17T10:49:57;15.50;;;5.15;;
67185;SDS011;54116;53.518;49.398;2024-03-17T10:52:29;14.48;;;5.07;;
67185;SDS011;54116;53.518;49.398;2024-03-17T10:54:59;14.02;;;6.20;;
67185;SDS011;54116;53.518;49.398;2024-03-17T11:00:00;14.40;;;5.70;;
67185;SDS011;54116;53.518;49.398;2024-03-17T11:02:31;18.08;;;5.20;;
67185;SDS011;54116;53.518;49.398;2024-03-17T11:05:02;15.38;;;6.72;;
67185;SDS011;54116;53.518;49.398;2024-03-17T11:07:30;15.68;;;6.57;;
67185;SDS011;54116;53.518;49.398;2024-03-17T11:09:59;19.33;;;5.85;;
67185;SDS011;54116;53.518;49.398;2024-03-17T11:12:45;15.27;;;6.18;;
67185;SDS011;54116;53.518;49.398;2024-03-17T11:17:46;13.90;;;5.90;;
67185;SDS011;54116;53.518;49.398;2024-03-17T11:20:26;16.45;;;5.82;;
67185;SDS011;54116;53.518;49.398;2024-03-17T11:22:59;16.30;;;5.85;;
67185;SDS011;54116;53.518;49.398;2024-03-17T11:27:55;13.02;;;3.90;;
67185;SDS011;54116;53.518;49.398;2024-03-17T11:38:56;9.82;;;4.13;;
67185;SDS011;54116;53.518;49.398;2024-03-17T11:41:41;10.02;;;3.80;;
67185;SDS011;54116;53.518;49.398;2024-03-17T11:49:25;11.90;;;4.55;;
67185;SDS011;54116;53.518;49.398;2024-03-17T11:54:42;16.10;;;7.68;;
67185;SDS011;54116;53.518;49.398;2024-03-17T11:57:14;11.77;;;5.63;;
67185;SDS011;54116;53.518;49.398;2024-03-17T11:59:53;9.52;;;3.78;;
67185;SDS011;54116;53.518;49.398;2024-03-17T12:02:21;18.75;;;6.38;;
67185;SDS011;54116;53.518;49.398;2024-03-17T12:04:51;11.38;;;3.95;;
67185;SDS011;54116;53.518;49.398;2024-03-17T12:07:22;9.95;;;3.90;;
67185;SDS011;54116;53.518;49.398;2024-03-17T12:09:52;12.38;;;4.60;;
67185;SDS011;54116;53.518;49.398;2024-03-17T12:12:26;13.43;;;4.35;;
67185;SDS011;54116;53.518;49.398;2024-03-17T12:15:05;13.95;;;6.07;;
67185;SDS011;54116;53.518;49.398;2024-03-17T12:17:42;13.10;;;5.47;;
67185;SDS011;54116;53.518;49.398;2024-03-17T12:20:18;14.57;;;5.82;;
67185;SDS011;54116;53.518;49.398;2024-03-17T12:22:46;14.05;;;6.38;;
67185;SDS011;54116;53.518;49.398;2024-03-17T12:25:17;13.13;;;4.82;;
67185;SDS011;54116;53.518;49.398;2024-03-17T12:27:45;12.60;;;4.47;;
67185;SDS011;54116;53.518;49.398;2024-03-17T12:30:12;12.23;;;5.22;;
67185;SDS011;54116;53.518;49.398;2024-03-17T12:32:40;12.73;;;4.43;;
67185;SDS011;54116;53.518;49.398;2024-03-17T12:35:16;10.07;;;3.75;;
67185;SDS011;54116;53.518;49.398;2024-03-17T12:37:43;13.50;;;4.38;;
67185;SDS011;54116;53.518;49.398;2024-03-17T12:40:20;10.90;;;4.68;;
67185;SDS011;54116;53.518;49.398;2024-03-17T12:42:49;13.57;;;4.85;;
67185;SDS011;54116;53.518;49.398;2024-03-17T12:45:19;14.45;;;4.90;;
67185;SDS011;54116;53.518;49.398;2024-03-17T12:47:47;14.77;;;4.75;;
67185;SDS011;54116;53.518;49.398;2024-03-17T12:50:14;13.93;;;4.82;;
67185;SDS011;54116;53.518;49.398;2024-03-17T12:52:44;12.48;;;5.00;;
67185;SDS011;54116;53.518;49.398;2024-03-17T12:55:19;16.15;;;5.47;;
67185;SDS011;54116;53.518;49.398;2024-03-17T13:00:57;13.57;;;4.95;;
67185;SDS011;54116;53.518;49.398;2024-03-17T13:03:28;14.60;;;5.20;;
67185;SDS011;54116;53.518;49.398;2024-03-17T13:05:54;14.60;;;6.25;;
67185;SDS011;54116;53.518;49.398;2024-03-17T13:08:21;13.75;;;7.43;;
67185;SDS011;54116;53.518;49.398;2024-03-17T13:13:13;15.07;;;7.47;;
67185;SDS011;54116;53.518;49.398;2024-03-17T13:15:41;18.80;;;6.57;;
67185;SDS011;54116;53.518;49.398;2024-03-17T13:18:08;12.63;;;6.13;;
67185;SDS011;54116;53.518;49.398;2024-03-17T13:20:35;30.77;;;13.55;;
67185;SDS011;54116;53.518;49.398;2024-03-17T13:23:01;20.88;;;9.63;;
67185;SDS011;54116;53.518;49.398;2024-03-17T13:25:28;11.88;;;4.32;;
67185;SDS011;54116;53.518;49.398;2024-03-17T13:27:59;14.70;;;7.88;;
67185;SDS011;54116;53.518;49.398;2024-03-17T13:30:26;13.40;;;6.97;;
67185;SDS011;54116;53.518;49.398;2024-03-17T13:32:54;18.63;;;9.90;;
67185;SDS011;54116;53.518;49.398;2024-03-17T13:35:24;13.52;;;6.18;;
67185;SDS011;54116;53.518;49.398;2024-03-17T13:37:52;19.50;;;9.20;;
67185;SDS011;54116;53.518;49.398;2024-03-17T13:40:20;20.10;;;8.40;;
67185;SDS011;54116;53.518;49.398;2024-03-17T13:42:48;13.43;;;5.68;;
67185;SDS011;54116;53.518;49.398;2024-03-17T13:45:16;11.82;;;5.00;;
67185;SDS011;54116;53.518;49.398;2024-03-17T13:47:46;13.55;;;5.35;;
67185;SDS011;54116;53.518;49.398;2024-03-17T13:50:22;14.43;;;5.30;;
67185;SDS011;54116;53.518;49.398;2024-03-17T13:52:48;11.48;;;5.72;;
67185;SDS011;54116;53.518;49.398;2024-03-17T13:55:15;20.58;;;10.30;;
67185;SDS011;54116;53.518;49.398;2024-03-17T13:57:43;21.17;;;10.38;;
67185;SDS011;54116;53.518;49.398;2024-03-17T14:02:48;19.83;;;9.38;;
67185;SDS011;54116;53.518;49.398;2024-03-17T14:05:16;23.58;;;11.38;;
67185;SDS011;54116;53.518;49.398;2024-03-17T14:07:43;16.02;;;7.25;;
67185;SDS011;54116;53.518;49.398;2024-03-17T14:12:39;18.80;;;7.22;;
67185;SDS011;54116;53.518;49.398;2024-03-17T14:15:05;17.77;;;7.15;;
67185;SDS011;54116;53.518;49.398;2024-03-17T14:17:39;15.30;;;6.82;;
67185;SDS011;54116;53.518;49.398;2024-03-17T14:20:12;14.95;;;7.68;;
67185;SDS011;54116;53.518;49.398;2024-03-17T14:22:41;18.92;;;7.65;;
67185;SDS011;54116;53.518;49.398;2024-03-17T14:25:09;18.92;;;8.32;;
67185;SDS011;54116;53.518;49.398;2024-03-17T14:27:38;59.05;;;23.67;;
67185;SDS011;54116;53.518;49.398;2024-03-17T14:32:31;33.08;;;14.18;;
67185;SDS011;54116;53.518;49.398;2024-03-17T14:34:57;26.02;;;9.40;;
67185;SDS011;54116;53.518;49.398;2024-03-17T14:37:23;21.67;;;8.95;;
67185;SDS011;54116;53.518;49.398;2024-03-17T14:39:52;23.33;;;9.48;;
67185;SDS011;54116;53.518;49.398;2024-03-17T14:42:20;30.58;;;10.77;;
67185;SDS011;54116;53.518;49.398;2024-03-17T14:44:47;19.20;;;8.13;;
67185;SDS011;54116;53.518;49.398;2024-03-17T14:47:15;19.10;;;8.27;;
67185;SDS011;54116;53.518;49.398;2024-03-17T14:49:41;16.70;;;6.60;;
67185;SDS011;54116;53.518;49.398;2024-03-17T14:52:11;17.25;;;7.03;;
67185;SDS011;54116;53.518;49.398;2024-03-17T14:54:37;15.48;;;6.60;;
67185;SDS011;54116;53.518;49.398;2024-03-17T14:57:03;16.40;;;6.72;;
67185;SDS011;54116;53.518;49.398;2024-03-17T14:59:30;18.05;;;6.28;;
67185;SDS011;54116;53.518;49.398;2024-03-17T15:04:23;16.38;;;6.75;;
67185;SDS011;54116;53.518;49.398;2024-03-17T15:06:52;14.35;;;6.55;;
67185;SDS011;54116;53.518;49.398;2024-03-17T15:09:21;14.50;;;6.63;;
67185;SDS011;54116;53.518;49.398;2024-03-17T15:11:47;15.52;;;6.60;;
67185;SDS011;54116;53.518;49.398;2024-03-17T15:14:13;14.25;;;6.65;;
67185;SDS011;54116;53.518;49.398;2024-03-17T15:16:39;21.55;;;9.38;;
67185;SDS011;54116;53.518;49.398;2024-03-17T15:19:06;23.67;;;9.00;;
67185;SDS011;54116;53.518;49.398;2024-03-17T15:21:32;20.05;;;9.32;;
67185;SDS011;54116;53.518;49.398;2024-03-17T15:24:00;24.80;;;10.55;;
67185;SDS011;54116;53.518;49.398;2024-03-17T15:26:28;30.92;;;12.15;;
67185;SDS011;54116;53.518;49.398;2024-03-17T15:28:54;26.33;;;11.00;;
67185;SDS011;54116;53.518;49.398;2024-03-17T15:31:22;26.77;;;9.52;;
67185;SDS011;54116;53.518;49.398;2024-03-17T15:33:49;27.70;;;10.20;;
67185;SDS011;54116;53.518;49.398;2024-03-17T15:36:16;24.00;;;9.50;;
67185;SDS011;54116;53.518;49.398;2024-03-17T15:38:43;24.35;;;9.52;;
67185;SDS011;54116;53.518;49.398;2024-03-17T15:41:09;22.15;;;8.93;;